sensor_id;sensor_type;location;lat;lon;timestamp;P1;durP1;ratioP1;P2;durP2;ratioP2
51491;SDS011;37569;50.548;8.778;2023-07-30T00:04:58;4.7;;;3;;
51491;SDS011;37569;50.548;8.778;2023-07-30T00:09:58;5.4;;;2.7;;
51491;SDS011;37569;50.548;8.778;2023-07-30T00:14:59;3.1;;;2.8;;
51491;SDS011;37569;50.548;8.778;2023-07-30T00:20:00;4.4;;;2.9;;
51491;SDS011;37569;50.548;8.778;2023-07-30T00:25:01;4.7;;;2.9;;
51491;SDS011;37569;50.548;8.778;2023-07-30T00:30:02;5.7;;;2.8;;
51491;SDS011;37569;50.548;8.778;2023-07-30T00:35:03;3.7;;;2.7;;
51491;SDS011;37569;50.548;8.778;2023-07-30T00:40:03;4;;;2.8;;
51491;SDS011;37569;50.548;8.778;2023-07-30T00:45:04;5.3;;;2.5;;
51491;SDS011;37569;50.548;8.778;2023-07-30T00:50:05;3.5;;;2.6;;
51491;SDS011;37569;50.548;8.778;2023-07-30T00:55:06;2.9;;;2.6;;
51491;SDS011;37569;50.548;8.778;2023-07-30T01:00:07;5.4;;;2.7;;
51491;SDS011;37569;50.548;8.778;2023-07-30T01:05:07;4.1;;;2.8;;
51491;SDS011;37569;50.548;8.778;2023-07-30T01:10:08;5.9;;;2.8;;
51491;SDS011;37569;50.548;8.778;2023-07-30T01:15:09;3.8;;;2.7;;
51491;SDS011;37569;50.548;8.778;2023-07-30T01:20:10;2.9;;;2.6;;
51491;SDS011;37569;50.548;8.778;2023-07-30T01:25:10;3.9;;;2.7;;
51491;SDS011;37569;50.548;8.778;2023-07-30T01:35:12;4.1;;;2.6;;
51491;SDS011;37569;50.548;8.778;2023-07-30T01:40:13;3.7;;;2.8;;
51491;SDS011;37569;50.548;8.778;2023-07-30T01:45:13;3.8;;;2.7;;
51491;SDS011;37569;50.548;8.778;2023-07-30T01:50:14;4;;;2.7;;
51491;SDS011;37569;50.548;8.778;2023-07-30T01:55:15;3.2;;;2.9;;
51491;SDS011;37569;50.548;8.778;2023-07-30T02:00:16;4.5;;;3;;
51491;SDS011;37569;50.548;8.778;2023-07-30T02:05:16;4.4;;;3.1;;
51491;SDS011;37569;50.548;8.778;2023-07-30T02:10:17;3.7;;;3.2;;
51491;SDS011;37569;50.548;8.778;2023-07-30T02:15:18;3.6;;;3.3;;
51491;SDS011;37569;50.548;8.778;2023-07-30T02:20:19;4.1;;;3.2;;
51491;SDS011;37569;50.548;8.778;2023-07-30T02:25:20;3.6;;;3.2;;
51491;SDS011;37569;50.548;8.778;2023-07-30T02:30:20;4;;;3;;
51491;SDS011;37569;50.548;8.778;2023-07-30T02:35:21;4.5;;;3.3;;
51491;SDS011;37569;50.548;8.778;2023-07-30T02:40:22;5;;;3.3;;
51491;SDS011;37569;50.548;8.778;2023-07-30T02:45:23;4.7;;;3.5;;
51491;SDS011;37569;50.548;8.778;2023-07-30T02:50:23;3.6;;;3.3;;
51491;SDS011;37569;50.548;8.778;2023-07-30T02:55:24;6.2;;;2.9;;
51491;SDS011;37569;50.548;8.778;2023-07-30T03:00:25;3.4;;;3.1;;
51491;SDS011;37569;50.548;8.778;2023-07-30T03:05:26;5;;;2.9;;
51491;SDS011;37569;50.548;8.778;2023-07-30T03:10:27;3.6;;;3;;
51491;SDS011;37569;50.548;8.778;2023-07-30T03:15:27;5.4;;;3.1;;
51491;SDS011;37569;50.548;8.778;2023-07-30T03:20:28;4.7;;;3.3;;
51491;SDS011;37569;50.548;8.778;2023-07-30T03:25:29;4.7;;;3.3;;
51491;SDS011;37569;50.548;8.778;2023-07-30T03:30:30;5.6;;;3.2;;
51491;SDS011;37569;50.548;8.778;2023-07-30T03:35:30;4.7;;;3;;
51491;SDS011;37569;50.548;8.778;2023-07-30T03:40:31;4;;;3.1;;
51491;SDS011;37569;50.548;8.778;2023-07-30T03:45:32;3.5;;;3;;
51491;SDS011;37569;50.548;8.778;2023-07-30T03:50:33;4.8;;;3;;
51491;SDS011;37569;50.548;8.778;2023-07-30T03:55:34;3.5;;;3;;
51491;SDS011;37569;50.548;8.778;2023-07-30T04:00:34;4.1;;;3;;
51491;SDS011;37569;50.548;8.778;2023-07-30T04:05:35;4.6;;;3.1;;
51491;SDS011;37569;50.548;8.778;2023-07-30T04:10:36;3.9;;;3.2;;
51491;SDS011;37569;50.548;8.778;2023-07-30T04:15:37;4.4;;;3.2;;
51491;SDS011;37569;50.548;8.778;2023-07-30T04:20:37;5;;;3.1;;
51491;SDS011;37569;50.548;8.778;2023-07-30T04:25:38;3.7;;;3;;
51491;SDS011;37569;50.548;8.778;2023-07-30T04:30:39;5;;;3.2;;
51491;SDS011;37569;50.548;8.778;2023-07-30T04:35:40;4.5;;;3;;
51491;SDS011;37569;50.548;8.778;2023-07-30T04:40:40;4.4;;;3;;
51491;SDS011;37569;50.548;8.778;2023-07-30T04:45:41;4;;;3;;
51491;SDS011;37569;50.548;8.778;2023-07-30T04:50:42;5;;;2.9;;
51491;SDS011;37569;50.548;8.778;2023-07-30T04:55:43;4.1;;;2.7;;
51491;SDS011;37569;50.548;8.778;2023-07-30T05:00:43;3.9;;;2.5;;
51491;SDS011;37569;50.548;8.778;2023-07-30T05:05:44;5.3;;;2.8;;
51491;SDS011;37569;50.548;8.778;2023-07-30T05:10:45;4.4;;;2.8;;
51491;SDS011;37569;50.548;8.778;2023-07-30T05:15:46;3;;;2.3;;
51491;SDS011;37569;50.548;8.778;2023-07-30T05:20:46;2.9;;;2.3;;
51491;SDS011;37569;50.548;8.778;2023-07-30T05:25:47;3.9;;;2.4;;
51491;SDS011;37569;50.548;8.778;2023-07-30T05:30:48;2.9;;;2.1;;
51491;SDS011;37569;50.548;8.778;2023-07-30T05:35:49;3.7;;;2.2;;
51491;SDS011;37569;50.548;8.778;2023-07-30T05:40:50;4.6;;;2.3;;
51491;SDS011;37569;50.548;8.778;2023-07-30T05:45:51;2.7;;;2.1;;
51491;SDS011;37569;50.548;8.778;2023-07-30T05:50:52;3.9;;;1.9;;
51491;SDS011;37569;50.548;8.778;2023-07-30T05:55:53;3.5;;;1.9;;
51491;SDS011;37569;50.548;8.778;2023-07-30T06:00:54;3.6;;;2;;
51491;SDS011;37569;50.548;8.778;2023-07-30T06:05:55;2.7;;;2;;
51491;SDS011;37569;50.548;8.778;2023-07-30T06:10:59;2.9;;;1.9;;
51491;SDS011;37569;50.548;8.778;2023-07-30T06:15:57;3.3;;;1.9;;
51491;SDS011;37569;50.548;8.778;2023-07-30T06:20:58;4.9;;;2;;
51491;SDS011;37569;50.548;8.778;2023-07-30T06:25:59;3.6;;;1.8;;
51491;SDS011;37569;50.548;8.778;2023-07-30T06:31:00;3.7;;;1.8;;
51491;SDS011;37569;50.548;8.778;2023-07-30T06:36:01;2.7;;;1.9;;
51491;SDS011;37569;50.548;8.778;2023-07-30T06:41:02;3.6;;;2;;
51491;SDS011;37569;50.548;8.778;2023-07-30T06:46:03;4.7;;;1.8;;
51491;SDS011;37569;50.548;8.778;2023-07-30T06:51:05;3.4;;;1.9;;
51491;SDS011;37569;50.548;8.778;2023-07-30T06:56:06;4.6;;;2;;
51491;SDS011;37569;50.548;8.778;2023-07-30T07:01:07;5.2;;;2;;
51491;SDS011;37569;50.548;8.778;2023-07-30T07:06:08;4.1;;;2;;
51491;SDS011;37569;50.548;8.778;2023-07-30T07:11:09;3.5;;;1.9;;
51491;SDS011;37569;50.548;8.778;2023-07-30T07:16:10;6.7;;;1.9;;
51491;SDS011;37569;50.548;8.778;2023-07-30T07:21:11;4.4;;;2.1;;
51491;SDS011;37569;50.548;8.778;2023-07-30T07:26:12;3.9;;;2.4;;
51491;SDS011;37569;50.548;8.778;2023-07-30T07:31:13;3.6;;;2.1;;
51491;SDS011;37569;50.548;8.778;2023-07-30T07:36:14;5.3;;;2.3;;
51491;SDS011;37569;50.548;8.778;2023-07-30T07:41:15;4;;;2.3;;
51491;SDS011;37569;50.548;8.778;2023-07-30T07:46:16;3.6;;;2.2;;
51491;SDS011;37569;50.548;8.778;2023-07-30T07:51:17;3.5;;;1.8;;
51491;SDS011;37569;50.548;8.778;2023-07-30T07:56:18;3.7;;;2.2;;
51491;SDS011;37569;50.548;8.778;2023-07-30T08:01:19;5.7;;;2.8;;
51491;SDS011;37569;50.548;8.778;2023-07-30T08:06:20;3.8;;;1.9;;
51491;SDS011;37569;50.548;8.778;2023-07-30T08:11:21;3.7;;;2.2;;
51491;SDS011;37569;50.548;8.778;2023-07-30T08:16:22;4.1;;;2.1;;
51491;SDS011;37569;50.548;8.778;2023-07-30T08:21:23;5;;;2.2;;
51491;SDS011;37569;50.548;8.778;2023-07-30T08:26:23;5.6;;;2.2;;
51491;SDS011;37569;50.548;8.778;2023-07-30T08:31:24;3.2;;;2;;
51491;SDS011;37569;50.548;8.778;2023-07-30T08:36:25;4.4;;;2;;
51491;SDS011;37569;50.548;8.778;2023-07-30T08:41:26;3;;;2;;
51491;SDS011;37569;50.548;8.778;2023-07-30T08:46:27;4;;;2;;
51491;SDS011;37569;50.548;8.778;2023-07-30T08:51:28;2.7;;;2;;
51491;SDS011;37569;50.548;8.778;2023-07-30T08:56:30;3.7;;;2.1;;
51491;SDS011;37569;50.548;8.778;2023-07-30T09:01:30;3.1;;;1.8;;
51491;SDS011;37569;50.548;8.778;2023-07-30T09:06:31;3.5;;;1.9;;
51491;SDS011;37569;50.548;8.778;2023-07-30T09:11:32;2.5;;;1.8;;
51491;SDS011;37569;50.548;8.778;2023-07-30T09:16:33;3.3;;;1.8;;
51491;SDS011;37569;50.548;8.778;2023-07-30T09:21:34;3.7;;;1.7;;
51491;SDS011;37569;50.548;8.778;2023-07-30T09:26:42;2.9;;;1.8;;
51491;SDS011;37569;50.548;8.778;2023-07-30T09:31:53;3.9;;;2.1;;
51491;SDS011;37569;50.548;8.778;2023-07-30T09:36:37;3.2;;;2;;
51491;SDS011;37569;50.548;8.778;2023-07-30T09:41:40;5.5;;;2.4;;
51491;SDS011;37569;50.548;8.778;2023-07-30T09:46:42;5.2;;;2.6;;
51491;SDS011;37569;50.548;8.778;2023-07-30T09:51:40;6.4;;;2.8;;
51491;SDS011;37569;50.548;8.778;2023-07-30T09:56:41;7.3;;;2.7;;
51491;SDS011;37569;50.548;8.778;2023-07-30T10:01:42;6.8;;;2.4;;
51491;SDS011;37569;50.548;8.778;2023-07-30T10:06:45;3.6;;;2;;
51491;SDS011;37569;50.548;8.778;2023-07-30T10:11:43;5.2;;;2.4;;
51491;SDS011;37569;50.548;8.778;2023-07-30T10:16:49;3.8;;;2.2;;
51491;SDS011;37569;50.548;8.778;2023-07-30T10:21:45;5.2;;;2.1;;
51491;SDS011;37569;50.548;8.778;2023-07-30T10:26:45;2.4;;;1.9;;
51491;SDS011;37569;50.548;8.778;2023-07-30T10:31:48;4.8;;;2;;
51491;SDS011;37569;50.548;8.778;2023-07-30T10:36:47;3.3;;;1.9;;
51491;SDS011;37569;50.548;8.778;2023-07-30T10:41:49;4.2;;;2.2;;
51491;SDS011;37569;50.548;8.778;2023-07-30T10:46:49;3.5;;;1.9;;
51491;SDS011;37569;50.548;8.778;2023-07-30T10:51:50;3.9;;;2.2;;
51491;SDS011;37569;50.548;8.778;2023-07-30T10:56:50;4;;;1.9;;
51491;SDS011;37569;50.548;8.778;2023-07-30T11:01:52;3;;;1.8;;
51491;SDS011;37569;50.548;8.778;2023-07-30T11:06:52;3;;;1.8;;
51491;SDS011;37569;50.548;8.778;2023-07-30T11:11:54;4.4;;;1.6;;
51491;SDS011;37569;50.548;8.778;2023-07-30T11:16:54;3.8;;;1.9;;
51491;SDS011;37569;50.548;8.778;2023-07-30T11:21:55;6.1;;;1.8;;
51491;SDS011;37569;50.548;8.778;2023-07-30T11:26:56;5.2;;;2;;
51491;SDS011;37569;50.548;8.778;2023-07-30T11:31:57;4.5;;;1.9;;
51491;SDS011;37569;50.548;8.778;2023-07-30T11:36:57;4.7;;;2.1;;
51491;SDS011;37569;50.548;8.778;2023-07-30T11:41:58;3.6;;;1.8;;
51491;SDS011;37569;50.548;8.778;2023-07-30T11:46:59;6;;;1.9;;
51491;SDS011;37569;50.548;8.778;2023-07-30T11:52:07;5.7;;;2.2;;
51491;SDS011;37569;50.548;8.778;2023-07-30T11:57:01;5.7;;;1.8;;
51491;SDS011;37569;50.548;8.778;2023-07-30T12:02:02;5.5;;;2;;
51491;SDS011;37569;50.548;8.778;2023-07-30T12:07:03;7.1;;;2;;
51491;SDS011;37569;50.548;8.778;2023-07-30T12:12:04;5;;;2;;
51491;SDS011;37569;50.548;8.778;2023-07-30T12:17:04;4.3;;;1.8;;
51491;SDS011;37569;50.548;8.778;2023-07-30T12:22:05;5.3;;;1.9;;
51491;SDS011;37569;50.548;8.778;2023-07-30T12:27:06;5.6;;;1.9;;
51491;SDS011;37569;50.548;8.778;2023-07-30T12:32:07;3.9;;;1.9;;
51491;SDS011;37569;50.548;8.778;2023-07-30T12:37:08;3.8;;;2;;
51491;SDS011;37569;50.548;8.778;2023-07-30T12:42:08;5.7;;;1.9;;
51491;SDS011;37569;50.548;8.778;2023-07-30T12:47:09;5.8;;;1.9;;
51491;SDS011;37569;50.548;8.778;2023-07-30T12:52:10;4;;;2;;
51491;SDS011;37569;50.548;8.778;2023-07-30T12:57:11;5.8;;;2.1;;
51491;SDS011;37569;50.548;8.778;2023-07-30T13:02:12;6;;;2.1;;
51491;SDS011;37569;50.548;8.778;2023-07-30T13:07:13;4.1;;;1.9;;
51491;SDS011;37569;50.548;8.778;2023-07-30T13:12:14;4.9;;;1.8;;
51491;SDS011;37569;50.548;8.778;2023-07-30T13:17:15;7.7;;;2.2;;
51491;SDS011;37569;50.548;8.778;2023-07-30T13:22:16;4.3;;;2;;
51491;SDS011;37569;50.548;8.778;2023-07-30T13:27:17;4.8;;;2.1;;
51491;SDS011;37569;50.548;8.778;2023-07-30T13:32:17;5.7;;;2.1;;
51491;SDS011;37569;50.548;8.778;2023-07-30T13:37:18;5;;;2;;
51491;SDS011;37569;50.548;8.778;2023-07-30T13:42:19;6.3;;;1.9;;
51491;SDS011;37569;50.548;8.778;2023-07-30T13:47:20;6.5;;;2.1;;
51491;SDS011;37569;50.548;8.778;2023-07-30T13:52:21;6.1;;;2.2;;
51491;SDS011;37569;50.548;8.778;2023-07-30T13:57:22;3.8;;;1.8;;
51491;SDS011;37569;50.548;8.778;2023-07-30T14:02:23;4.8;;;2;;
51491;SDS011;37569;50.548;8.778;2023-07-30T14:07:24;4;;;1.8;;
51491;SDS011;37569;50.548;8.778;2023-07-30T14:12:25;6.7;;;1.9;;
51491;SDS011;37569;50.548;8.778;2023-07-30T14:17:26;5.6;;;1.9;;
51491;SDS011;37569;50.548;8.778;2023-07-30T14:22:27;5;;;1.9;;
51491;SDS011;37569;50.548;8.778;2023-07-30T14:27:28;6.3;;;1.9;;
51491;SDS011;37569;50.548;8.778;2023-07-30T14:32:29;3.9;;;1.8;;
51491;SDS011;37569;50.548;8.778;2023-07-30T14:37:30;4.3;;;1.8;;
51491;SDS011;37569;50.548;8.778;2023-07-30T14:42:31;4.2;;;1.8;;
51491;SDS011;37569;50.548;8.778;2023-07-30T14:47:32;4.7;;;1.9;;
51491;SDS011;37569;50.548;8.778;2023-07-30T14:52:33;6.2;;;2.1;;
51491;SDS011;37569;50.548;8.778;2023-07-30T14:57:34;4.3;;;1.9;;
51491;SDS011;37569;50.548;8.778;2023-07-30T15:02:35;5.7;;;1.9;;
51491;SDS011;37569;50.548;8.778;2023-07-30T15:07:36;4.6;;;1.8;;
51491;SDS011;37569;50.548;8.778;2023-07-30T15:12:37;7.1;;;3.7;;
51491;SDS011;37569;50.548;8.778;2023-07-30T15:17:37;5;;;1.8;;
51491;SDS011;37569;50.548;8.778;2023-07-30T15:22:38;5.7;;;1.6;;
51491;SDS011;37569;50.548;8.778;2023-07-30T15:27:39;4.3;;;1.8;;
51491;SDS011;37569;50.548;8.778;2023-07-30T15:32:41;6.4;;;2.2;;
51491;SDS011;37569;50.548;8.778;2023-07-30T15:37:41;4.1;;;1.9;;
51491;SDS011;37569;50.548;8.778;2023-07-30T15:42:42;4.8;;;2.1;;
51491;SDS011;37569;50.548;8.778;2023-07-30T15:47:43;4.1;;;1.8;;
51491;SDS011;37569;50.548;8.778;2023-07-30T15:52:44;5.4;;;1.9;;
51491;SDS011;37569;50.548;8.778;2023-07-30T15:57:45;4.1;;;1.7;;
51491;SDS011;37569;50.548;8.778;2023-07-30T16:02:46;2.9;;;1.8;;
51491;SDS011;37569;50.548;8.778;2023-07-30T16:07:47;4.2;;;1.8;;
51491;SDS011;37569;50.548;8.778;2023-07-30T16:12:48;5.1;;;2.1;;
51491;SDS011;37569;50.548;8.778;2023-07-30T16:17:49;5.3;;;2;;
51491;SDS011;37569;50.548;8.778;2023-07-30T16:22:50;2.9;;;1.9;;
51491;SDS011;37569;50.548;8.778;2023-07-30T16:27:51;3.5;;;1.9;;
51491;SDS011;37569;50.548;8.778;2023-07-30T16:32:52;2.9;;;1.8;;
51491;SDS011;37569;50.548;8.778;2023-07-30T16:37:53;3.5;;;1.8;;
51491;SDS011;37569;50.548;8.778;2023-07-30T16:42:54;3.4;;;1.7;;
51491;SDS011;37569;50.548;8.778;2023-07-30T16:47:54;3.7;;;1.7;;
51491;SDS011;37569;50.548;8.778;2023-07-30T16:52:55;3.9;;;1.7;;
51491;SDS011;37569;50.548;8.778;2023-07-30T16:57:56;5.2;;;2;;
51491;SDS011;37569;50.548;8.778;2023-07-30T17:02:57;3.9;;;2;;
51491;SDS011;37569;50.548;8.778;2023-07-30T17:07:58;3.7;;;1.6;;
51491;SDS011;37569;50.548;8.778;2023-07-30T17:12:59;3.6;;;2;;
51491;SDS011;37569;50.548;8.778;2023-07-30T17:18:00;6.1;;;3.5;;
51491;SDS011;37569;50.548;8.778;2023-07-30T17:23:01;5.3;;;2.2;;
51491;SDS011;37569;50.548;8.778;2023-07-30T17:28:02;3.7;;;1.8;;
51491;SDS011;37569;50.548;8.778;2023-07-30T17:33:03;4.8;;;2;;
51491;SDS011;37569;50.548;8.778;2023-07-30T17:38:03;5.4;;;2.1;;
51491;SDS011;37569;50.548;8.778;2023-07-30T17:43:05;4.7;;;2;;
51491;SDS011;37569;50.548;8.778;2023-07-30T17:48:05;6;;;2.1;;
51491;SDS011;37569;50.548;8.778;2023-07-30T17:53:06;3.7;;;1.7;;
51491;SDS011;37569;50.548;8.778;2023-07-30T17:58:07;3.4;;;1.8;;
51491;SDS011;37569;50.548;8.778;2023-07-30T18:03:08;4.9;;;2.1;;
51491;SDS011;37569;50.548;8.778;2023-07-30T18:08:09;3.7;;;1.8;;
51491;SDS011;37569;50.548;8.778;2023-07-30T18:13:10;3.5;;;1.9;;
51491;SDS011;37569;50.548;8.778;2023-07-30T18:18:11;3.9;;;2;;
51491;SDS011;37569;50.548;8.778;2023-07-30T18:23:12;3.5;;;1.7;;
51491;SDS011;37569;50.548;8.778;2023-07-30T18:28:13;5.3;;;2;;
51491;SDS011;37569;50.548;8.778;2023-07-30T18:33:13;5.7;;;2;;
51491;SDS011;37569;50.548;8.778;2023-07-30T18:38:14;4.3;;;2;;
51491;SDS011;37569;50.548;8.778;2023-07-30T18:43:15;5.3;;;2.2;;
51491;SDS011;37569;50.548;8.778;2023-07-30T18:48:16;4.4;;;1.9;;
51491;SDS011;37569;50.548;8.778;2023-07-30T18:53:17;5.5;;;2.2;;
51491;SDS011;37569;50.548;8.778;2023-07-30T18:58:18;4.6;;;2;;
51491;SDS011;37569;50.548;8.778;2023-07-30T19:03:19;3.5;;;1.8;;
51491;SDS011;37569;50.548;8.778;2023-07-30T19:08:19;5.3;;;1.9;;
51491;SDS011;37569;50.548;8.778;2023-07-30T19:13:20;5.6;;;1.8;;
51491;SDS011;37569;50.548;8.778;2023-07-30T19:18:21;4.6;;;1.9;;
51491;SDS011;37569;50.548;8.778;2023-07-30T19:23:22;5.4;;;2;;
51491;SDS011;37569;50.548;8.778;2023-07-30T19:28:23;3.7;;;1.9;;
51491;SDS011;37569;50.548;8.778;2023-07-30T19:33:23;5.3;;;2.1;;
51491;SDS011;37569;50.548;8.778;2023-07-30T19:38:24;5;;;2;;
51491;SDS011;37569;50.548;8.778;2023-07-30T19:43:25;5.1;;;1.9;;
51491;SDS011;37569;50.548;8.778;2023-07-30T19:48:26;4.2;;;1.8;;
51491;SDS011;37569;50.548;8.778;2023-07-30T19:53:27;4.7;;;2;;
51491;SDS011;37569;50.548;8.778;2023-07-30T19:58:28;4.9;;;1.9;;
51491;SDS011;37569;50.548;8.778;2023-07-30T20:03:29;3.5;;;1.9;;
51491;SDS011;37569;50.548;8.778;2023-07-30T20:08:29;5.3;;;2;;
51491;SDS011;37569;50.548;8.778;2023-07-30T20:13:30;3.7;;;2;;
51491;SDS011;37569;50.548;8.778;2023-07-30T20:18:31;4.4;;;2.2;;
51491;SDS011;37569;50.548;8.778;2023-07-30T20:23:32;3.9;;;2;;
51491;SDS011;37569;50.548;8.778;2023-07-30T20:28:32;5.6;;;1.8;;
51491;SDS011;37569;50.548;8.778;2023-07-30T20:33:33;3.4;;;1.8;;
51491;SDS011;37569;50.548;8.778;2023-07-30T20:38:34;5.7;;;2;;
51491;SDS011;37569;50.548;8.778;2023-07-30T20:43:35;5;;;1.9;;
51491;SDS011;37569;50.548;8.778;2023-07-30T20:48:36;5.3;;;2.1;;
51491;SDS011;37569;50.548;8.778;2023-07-30T20:53:36;3.9;;;2;;
51491;SDS011;37569;50.548;8.778;2023-07-30T20:58:37;4;;;2;;
51491;SDS011;37569;50.548;8.778;2023-07-30T21:03:40;4.4;;;2.1;;
51491;SDS011;37569;50.548;8.778;2023-07-30T21:08:39;5.3;;;2;;
51491;SDS011;37569;50.548;8.778;2023-07-30T21:13:40;4.7;;;2;;
51491;SDS011;37569;50.548;8.778;2023-07-30T21:18:41;3.5;;;1.9;;
51491;SDS011;37569;50.548;8.778;2023-07-30T21:23:41;5.2;;;2.2;;
51491;SDS011;37569;50.548;8.778;2023-07-30T21:28:42;5.7;;;1.9;;
51491;SDS011;37569;50.548;8.778;2023-07-30T21:33:43;4.2;;;1.7;;
51491;SDS011;37569;50.548;8.778;2023-07-30T21:38:44;4.5;;;1.9;;
51491;SDS011;37569;50.548;8.778;2023-07-30T21:43:45;4.2;;;1.8;;
51491;SDS011;37569;50.548;8.778;2023-07-30T21:48:45;2.7;;;2;;
51491;SDS011;37569;50.548;8.778;2023-07-30T21:53:46;4.8;;;2;;
51491;SDS011;37569;50.548;8.778;2023-07-30T21:58:47;5.3;;;2;;
51491;SDS011;37569;50.548;8.778;2023-07-30T22:03:48;4.7;;;2.2;;
51491;SDS011;37569;50.548;8.778;2023-07-30T22:08:49;3.5;;;2;;
51491;SDS011;37569;50.548;8.778;2023-07-30T22:13:49;4.9;;;2.1;;
51491;SDS011;37569;50.548;8.778;2023-07-30T22:18:50;5.6;;;2.3;;
51491;SDS011;37569;50.548;8.778;2023-07-30T22:23:51;5.3;;;2.4;;
51491;SDS011;37569;50.548;8.778;2023-07-30T22:28:52;5.5;;;2.2;;
51491;SDS011;37569;50.548;8.778;2023-07-30T22:33:53;7.2;;;2.2;;
51491;SDS011;37569;50.548;8.778;2023-07-30T22:38:53;5.1;;;2.2;;
51491;SDS011;37569;50.548;8.778;2023-07-30T22:43:54;4.7;;;2.2;;
51491;SDS011;37569;50.548;8.778;2023-07-30T22:48:55;4.2;;;2.1;;
51491;SDS011;37569;50.548;8.778;2023-07-30T22:53:56;5.4;;;2.1;;
51491;SDS011;37569;50.548;8.778;2023-07-30T22:58:57;6.9;;;2.5;;
51491;SDS011;37569;50.548;8.778;2023-07-30T23:03:57;7.4;;;2.1;;
51491;SDS011;37569;50.548;8.778;2023-07-30T23:08:58;5.5;;;1.9;;
51491;SDS011;37569;50.548;8.778;2023-07-30T23:13:59;4.7;;;2.3;;
51491;SDS011;37569;50.548;8.778;2023-07-30T23:19:00;3.7;;;2.2;;
51491;SDS011;37569;50.548;8.778;2023-07-30T23:24:00;5.6;;;2.1;;
51491;SDS011;37569;50.548;8.778;2023-07-30T23:29:01;6.4;;;2.1;;
51491;SDS011;37569;50.548;8.778;2023-07-30T23:34:02;5.4;;;2.1;;
51491;SDS011;37569;50.548;8.778;2023-07-30T23:39:03;5.9;;;2;;
51491;SDS011;37569;50.548;8.778;2023-07-30T23:44:04;4.3;;;2.2;;
51491;SDS011;37569;50.548;8.778;2023-07-30T23:49:04;4.4;;;1.9;;
51491;SDS011;37569;50.548;8.778;2023-07-30T23:54:05;6.1;;;2.2;;
51491;SDS011;37569;50.548;8.778;2023-07-30T23:59:06;5.2;;;2.2;;
